sensor_id;sensor_type;location;lat;lon;timestamp;pressure;altitude;pressure_sealevel;temperature;humidity
46379;BME280;32084;42.254;22.744;2023-08-21T00:00:13;95489.53;;;22.44;66.91
46379;BME280;32084;42.254;22.744;2023-08-21T00:02:39;95485.44;;;22.34;67.08
46379;BME280;32084;42.254;22.744;2023-08-21T00:05:05;95487.81;;;22.24;67.10
46379;BME280;32084;42.254;22.744;2023-08-21T00:07:32;95491.78;;;22.28;66.95
46379;BME280;32084;42.254;22.744;2023-08-21T00:09:58;95476.22;;;22.54;66.57
46379;BME280;32084;42.254;22.744;2023-08-21T00:12:24;95500.63;;;22.42;66.82
46379;BME280;32084;42.254;22.744;2023-08-21T00:14:50;95500.84;;;22.22;67.80
46379;BME280;32084;42.254;22.744;2023-08-21T00:17:16;95496.78;;;22.31;66.80
46379;BME280;32084;42.254;22.744;2023-08-21T00:19:41;95499.22;;;22.39;67.22
46379;BME280;32084;42.254;22.744;2023-08-21T00:22:07;95503.75;;;22.27;66.93
46379;BME280;32084;42.254;22.744;2023-08-21T00:24:33;95494.94;;;22.25;67.74
46379;BME280;32084;42.254;22.744;2023-08-21T00:26:59;95500.13;;;22.33;67.29
46379;BME280;32084;42.254;22.744;2023-08-21T00:29:25;95501.09;;;22.14;68.20
46379;BME280;32084;42.254;22.744;2023-08-21T00:31:51;95490.25;;;21.89;70.23
46379;BME280;32084;42.254;22.744;2023-08-21T00:34:17;95492.53;;;21.92;69.76
46379;BME280;32084;42.254;22.744;2023-08-21T00:36:43;95488.25;;;22.02;68.90
46379;BME280;32084;42.254;22.744;2023-08-21T00:39:09;95490.00;;;21.97;69.14
46379;BME280;32084;42.254;22.744;2023-08-21T00:41:35;95494.84;;;22.13;67.85
46379;BME280;32084;42.254;22.744;2023-08-21T00:44:01;95490.97;;;22.28;68.16
46379;BME280;32084;42.254;22.744;2023-08-21T00:46:27;95493.69;;;22.28;68.25
46379;BME280;32084;42.254;22.744;2023-08-21T00:48:53;95487.66;;;22.19;68.29
46379;BME280;32084;42.254;22.744;2023-08-21T00:51:19;95480.53;;;21.99;69.68
46379;BME280;32084;42.254;22.744;2023-08-21T00:53:45;95482.88;;;21.96;69.94
46379;BME280;32084;42.254;22.744;2023-08-21T00:56:11;95485.94;;;21.81;70.61
46379;BME280;32084;42.254;22.744;2023-08-21T00:58:38;95493.06;;;21.82;70.49
46379;BME280;32084;42.254;22.744;2023-08-21T01:01:04;95496.81;;;21.81;71.09
46379;BME280;32084;42.254;22.744;2023-08-21T01:03:30;95496.66;;;21.76;72.16
46379;BME280;32084;42.254;22.744;2023-08-21T01:05:57;95492.41;;;21.61;72.62
46379;BME280;32084;42.254;22.744;2023-08-21T01:08:25;95493.44;;;21.60;71.13
46379;BME280;32084;42.254;22.744;2023-08-21T01:10:56;95486.06;;;21.68;69.77
46379;BME280;32084;42.254;22.744;2023-08-21T01:13:51;95491.06;;;21.71;70.89
46379;BME280;32084;42.254;22.744;2023-08-21T01:16:20;95493.41;;;21.67;70.42
46379;BME280;32084;42.254;22.744;2023-08-21T01:18:47;95488.38;;;21.64;71.59
46379;BME280;32084;42.254;22.744;2023-08-21T01:21:14;95485.88;;;21.62;71.34
46379;BME280;32084;42.254;22.744;2023-08-21T01:23:41;95488.34;;;21.71;71.21
46379;BME280;32084;42.254;22.744;2023-08-21T01:26:10;95495.00;;;21.50;72.60
46379;BME280;32084;42.254;22.744;2023-08-21T01:28:36;95501.56;;;21.35;73.66
46379;BME280;32084;42.254;22.744;2023-08-21T01:31:09;95501.53;;;21.03;75.19
46379;BME280;32084;42.254;22.744;2023-08-21T01:33:40;95503.03;;;20.99;73.87
46379;BME280;32084;42.254;22.744;2023-08-21T01:36:08;95506.88;;;21.17;73.38
46379;BME280;32084;42.254;22.744;2023-08-21T01:38:34;95509.06;;;21.01;74.53
46379;BME280;32084;42.254;22.744;2023-08-21T01:41:01;95507.16;;;21.09;73.39
46379;BME280;32084;42.254;22.744;2023-08-21T01:43:27;95508.97;;;21.21;73.17
46379;BME280;32084;42.254;22.744;2023-08-21T01:45:54;95509.78;;;21.29;72.92
46379;BME280;32084;42.254;22.744;2023-08-21T01:48:20;95508.50;;;21.24;72.54
46379;BME280;32084;42.254;22.744;2023-08-21T01:50:46;95512.09;;;21.25;73.29
46379;BME280;32084;42.254;22.744;2023-08-21T01:53:12;95515.75;;;21.05;73.83
46379;BME280;32084;42.254;22.744;2023-08-21T01:55:38;95515.00;;;20.92;75.35
46379;BME280;32084;42.254;22.744;2023-08-21T01:58:04;95510.28;;;20.74;75.99
46379;BME280;32084;42.254;22.744;2023-08-21T02:00:30;95517.84;;;20.58;77.44
46379;BME280;32084;42.254;22.744;2023-08-21T02:02:56;95512.22;;;20.46;77.77
46379;BME280;32084;42.254;22.744;2023-08-21T02:05:22;95512.19;;;20.60;77.90
46379;BME280;32084;42.254;22.744;2023-08-21T02:07:48;95526.88;;;20.39;78.94
46379;BME280;32084;42.254;22.744;2023-08-21T02:10:14;95524.34;;;20.44;77.81
46379;BME280;32084;42.254;22.744;2023-08-21T02:12:39;95521.47;;;20.32;79.10
46379;BME280;32084;42.254;22.744;2023-08-21T02:15:06;95534.44;;;20.17;79.85
46379;BME280;32084;42.254;22.744;2023-08-21T02:17:32;95529.44;;;20.07;79.67
46379;BME280;32084;42.254;22.744;2023-08-21T02:19:58;95526.47;;;20.28;79.36
46379;BME280;32084;42.254;22.744;2023-08-21T02:22:24;95526.72;;;20.07;79.74
46379;BME280;32084;42.254;22.744;2023-08-21T02:24:50;95521.69;;;20.17;79.44
46379;BME280;32084;42.254;22.744;2023-08-21T02:27:15;95519.63;;;19.99;79.86
46379;BME280;32084;42.254;22.744;2023-08-21T02:29:41;95515.03;;;20.06;79.54
46379;BME280;32084;42.254;22.744;2023-08-21T02:32:07;95516.75;;;19.81;80.18
46379;BME280;32084;42.254;22.744;2023-08-21T02:34:33;95513.59;;;19.84;80.39
46379;BME280;32084;42.254;22.744;2023-08-21T02:36:59;95514.84;;;19.75;80.60
46379;BME280;32084;42.254;22.744;2023-08-21T02:39:25;95509.84;;;19.92;80.16
46379;BME280;32084;42.254;22.744;2023-08-21T02:41:51;95507.13;;;19.85;80.90
46379;BME280;32084;42.254;22.744;2023-08-21T02:44:17;95514.84;;;19.75;80.99
46379;BME280;32084;42.254;22.744;2023-08-21T02:46:43;95506.28;;;19.64;81.98
46379;BME280;32084;42.254;22.744;2023-08-21T02:49:09;95511.28;;;19.61;81.80
46379;BME280;32084;42.254;22.744;2023-08-21T02:51:35;95511.69;;;19.58;81.81
46379;BME280;32084;42.254;22.744;2023-08-21T02:54:01;95513.59;;;19.64;81.73
46379;BME280;32084;42.254;22.744;2023-08-21T02:56:27;95516.09;;;19.52;82.45
46379;BME280;32084;42.254;22.744;2023-08-21T02:58:53;95506.69;;;19.61;82.25
46379;BME280;32084;42.254;22.744;2023-08-21T03:01:19;95508.19;;;19.77;81.36
46379;BME280;32084;42.254;22.744;2023-08-21T03:03:45;95505.28;;;19.79;80.72
46379;BME280;32084;42.254;22.744;2023-08-21T03:06:11;95506.06;;;19.39;82.09
46379;BME280;32084;42.254;22.744;2023-08-21T03:08:37;95498.34;;;19.23;82.66
46379;BME280;32084;42.254;22.744;2023-08-21T03:11:03;95504.78;;;19.15;83.44
46379;BME280;32084;42.254;22.744;2023-08-21T03:13:29;95502.31;;;19.20;83.32
46379;BME280;32084;42.254;22.744;2023-08-21T03:15:55;95503.34;;;19.26;82.50
46379;BME280;32084;42.254;22.744;2023-08-21T03:18:20;95514.78;;;19.08;82.95
46379;BME280;32084;42.254;22.744;2023-08-21T03:20:47;95518.91;;;18.90;84.09
46379;BME280;32084;42.254;22.744;2023-08-21T03:23:13;95511.03;;;19.09;83.80
46379;BME280;32084;42.254;22.744;2023-08-21T03:25:40;95516.06;;;19.39;82.76
46379;BME280;32084;42.254;22.744;2023-08-21T03:28:06;95510.25;;;19.35;82.60
46379;BME280;32084;42.254;22.744;2023-08-21T03:30:32;95507.53;;;19.35;82.62
46379;BME280;32084;42.254;22.744;2023-08-21T03:32:58;95513.91;;;19.01;83.65
46379;BME280;32084;42.254;22.744;2023-08-21T03:35:24;95516.44;;;18.96;83.86
46379;BME280;32084;42.254;22.744;2023-08-21T03:37:50;95526.09;;;18.70;84.86
46379;BME280;32084;42.254;22.744;2023-08-21T03:40:16;95523.28;;;18.91;83.92
46379;BME280;32084;42.254;22.744;2023-08-21T03:42:42;95527.53;;;18.66;85.30
46379;BME280;32084;42.254;22.744;2023-08-21T03:45:09;95530.13;;;18.81;84.56
46379;BME280;32084;42.254;22.744;2023-08-21T03:47:35;95535.59;;;19.01;83.63
46379;BME280;32084;42.254;22.744;2023-08-21T03:50:01;95534.75;;;18.94;83.98
46379;BME280;32084;42.254;22.744;2023-08-21T03:52:27;95539.31;;;18.86;84.49
46379;BME280;32084;42.254;22.744;2023-08-21T03:54:53;95535.44;;;19.09;83.65
46379;BME280;32084;42.254;22.744;2023-08-21T03:57:18;95543.47;;;18.82;84.47
46379;BME280;32084;42.254;22.744;2023-08-21T03:59:44;95539.63;;;18.63;85.08
46379;BME280;32084;42.254;22.744;2023-08-21T04:02:10;95548.38;;;18.72;85.58
46379;BME280;32084;42.254;22.744;2023-08-21T04:04:36;95548.69;;;18.84;84.48
46379;BME280;32084;42.254;22.744;2023-08-21T04:07:03;95550.59;;;18.90;84.35
46379;BME280;32084;42.254;22.744;2023-08-21T04:09:29;95547.00;;;18.83;84.64
46379;BME280;32084;42.254;22.744;2023-08-21T04:11:55;95549.81;;;19.03;83.43
46379;BME280;32084;42.254;22.744;2023-08-21T04:14:21;95547.56;;;19.26;83.06
46379;BME280;32084;42.254;22.744;2023-08-21T04:16:47;95556.88;;;19.04;84.22
46379;BME280;32084;42.254;22.744;2023-08-21T04:19:13;95561.44;;;18.97;84.34
46379;BME280;32084;42.254;22.744;2023-08-21T04:21:39;95561.94;;;19.27;82.49
46379;BME280;32084;42.254;22.744;2023-08-21T04:24:05;95558.63;;;19.31;83.43
46379;BME280;32084;42.254;22.744;2023-08-21T04:26:31;95554.69;;;19.41;82.93
46379;BME280;32084;42.254;22.744;2023-08-21T04:28:57;95563.00;;;19.33;83.16
46379;BME280;32084;42.254;22.744;2023-08-21T04:31:23;95566.78;;;19.45;83.07
46379;BME280;32084;42.254;22.744;2023-08-21T04:33:49;95562.41;;;19.70;81.85
46379;BME280;32084;42.254;22.744;2023-08-21T04:36:15;95563.03;;;20.13;79.95
46379;BME280;32084;42.254;22.744;2023-08-21T04:38:42;95562.94;;;20.73;78.39
46379;BME280;32084;42.254;22.744;2023-08-21T04:41:08;95571.97;;;21.12;76.39
46379;BME280;32084;42.254;22.744;2023-08-21T04:43:34;95568.94;;;21.26;75.01
46379;BME280;32084;42.254;22.744;2023-08-21T04:46:00;95565.50;;;21.51;73.43
46379;BME280;32084;42.254;22.744;2023-08-21T04:48:27;95567.94;;;21.91;71.76
46379;BME280;32084;42.254;22.744;2023-08-21T04:50:53;95572.91;;;21.94;72.66
46379;BME280;32084;42.254;22.744;2023-08-21T04:53:19;95577.34;;;21.63;74.85
46379;BME280;32084;42.254;22.744;2023-08-21T04:55:45;95575.78;;;21.42;75.98
46379;BME280;32084;42.254;22.744;2023-08-21T04:58:11;95577.69;;;21.35;77.14
46379;BME280;32084;42.254;22.744;2023-08-21T05:00:37;95576.59;;;21.43;76.81
46379;BME280;32084;42.254;22.744;2023-08-21T05:03:03;95582.88;;;21.43;77.21
46379;BME280;32084;42.254;22.744;2023-08-21T05:05:29;95580.59;;;21.47;77.22
46379;BME280;32084;42.254;22.744;2023-08-21T05:07:55;95587.31;;;21.44;75.21
46379;BME280;32084;42.254;22.744;2023-08-21T05:10:21;95580.91;;;21.64;74.64
46379;BME280;32084;42.254;22.744;2023-08-21T05:12:47;95583.63;;;21.89;74.75
46379;BME280;32084;42.254;22.744;2023-08-21T05:15:14;95582.81;;;21.89;73.63
46379;BME280;32084;42.254;22.744;2023-08-21T05:17:40;95576.72;;;21.93;76.09
46379;BME280;32084;42.254;22.744;2023-08-21T05:20:06;95584.25;;;22.16;71.45
46379;BME280;32084;42.254;22.744;2023-08-21T05:22:32;95593.16;;;22.30;69.04
46379;BME280;32084;42.254;22.744;2023-08-21T05:24:58;95594.63;;;22.51;68.34
46379;BME280;32084;42.254;22.744;2023-08-21T05:27:24;95593.38;;;22.72;67.86
46379;BME280;32084;42.254;22.744;2023-08-21T05:29:50;95601.66;;;22.84;69.62
46379;BME280;32084;42.254;22.744;2023-08-21T05:32:17;95598.44;;;22.87;68.07
46379;BME280;32084;42.254;22.744;2023-08-21T05:34:43;95598.84;;;23.09;66.67
46379;BME280;32084;42.254;22.744;2023-08-21T05:37:09;95599.28;;;23.25;65.84
46379;BME280;32084;42.254;22.744;2023-08-21T05:39:35;95603.25;;;23.41;64.97
46379;BME280;32084;42.254;22.744;2023-08-21T05:42:01;95598.09;;;23.51;63.94
46379;BME280;32084;42.254;22.744;2023-08-21T05:44:27;95601.09;;;23.61;64.55
46379;BME280;32084;42.254;22.744;2023-08-21T05:46:53;95598.53;;;23.78;65.03
46379;BME280;32084;42.254;22.744;2023-08-21T05:49:19;95595.97;;;23.83;63.08
46379;BME280;32084;42.254;22.744;2023-08-21T05:51:45;95600.97;;;23.86;63.39
46379;BME280;32084;42.254;22.744;2023-08-21T05:54:11;95592.09;;;23.91;62.65
46379;BME280;32084;42.254;22.744;2023-08-21T05:56:37;95591.72;;;23.99;62.71
46379;BME280;32084;42.254;22.744;2023-08-21T05:59:03;95595.41;;;23.93;65.82
46379;BME280;32084;42.254;22.744;2023-08-21T06:01:29;95598.03;;;24.00;65.63
46379;BME280;32084;42.254;22.744;2023-08-21T06:03:57;95599.56;;;24.07;63.18
46379;BME280;32084;42.254;22.744;2023-08-21T06:06:23;95594.63;;;24.28;64.00
46379;BME280;32084;42.254;22.744;2023-08-21T06:08:49;95594.06;;;24.49;61.33
46379;BME280;32084;42.254;22.744;2023-08-21T06:11:15;95593.31;;;24.42;63.91
46379;BME280;32084;42.254;22.744;2023-08-21T06:13:41;95595.00;;;24.79;62.63
46379;BME280;32084;42.254;22.744;2023-08-21T06:16:07;95599.03;;;24.88;64.11
46379;BME280;32084;42.254;22.744;2023-08-21T06:18:33;95598.63;;;25.08;62.16
46379;BME280;32084;42.254;22.744;2023-08-21T06:20:59;95590.78;;;25.23;61.33
46379;BME280;32084;42.254;22.744;2023-08-21T06:23:25;95593.91;;;25.44;60.17
46379;BME280;32084;42.254;22.744;2023-08-21T06:25:51;95596.97;;;25.59;59.73
46379;BME280;32084;42.254;22.744;2023-08-21T06:28:17;95590.28;;;25.55;62.65
46379;BME280;32084;42.254;22.744;2023-08-21T06:30:43;95591.50;;;25.47;61.55
46379;BME280;32084;42.254;22.744;2023-08-21T06:33:09;95589.13;;;25.51;61.83
46379;BME280;32084;42.254;22.744;2023-08-21T06:35:36;95584.81;;;25.55;60.77
46379;BME280;32084;42.254;22.744;2023-08-21T06:38:02;95591.28;;;25.49;58.27
46379;BME280;32084;42.254;22.744;2023-08-21T06:40:28;95586.53;;;25.73;61.06
46379;BME280;32084;42.254;22.744;2023-08-21T06:42:54;95589.16;;;25.97;58.55
46379;BME280;32084;42.254;22.744;2023-08-21T06:45:20;95591.56;;;26.10;59.90
46379;BME280;32084;42.254;22.744;2023-08-21T06:47:46;95583.78;;;26.19;61.22
46379;BME280;32084;42.254;22.744;2023-08-21T06:50:12;95578.63;;;26.39;60.26
46379;BME280;32084;42.254;22.744;2023-08-21T06:52:39;95582.19;;;26.74;60.58
46379;BME280;32084;42.254;22.744;2023-08-21T06:55:05;95588.81;;;26.78;59.73
46379;BME280;32084;42.254;22.744;2023-08-21T06:57:31;95585.59;;;26.81;57.10
46379;BME280;32084;42.254;22.744;2023-08-21T06:59:57;95590.25;;;27.02;58.29
46379;BME280;32084;42.254;22.744;2023-08-21T07:02:23;95595.97;;;27.01;59.01
46379;BME280;32084;42.254;22.744;2023-08-21T07:04:49;95591.06;;;27.03;58.29
46379;BME280;32084;42.254;22.744;2023-08-21T07:07:15;95594.97;;;27.07;59.82
46379;BME280;32084;42.254;22.744;2023-08-21T07:09:41;95593.63;;;27.26;60.04
46379;BME280;32084;42.254;22.744;2023-08-21T07:12:07;95593.72;;;27.37;59.07
46379;BME280;32084;42.254;22.744;2023-08-21T07:14:33;95590.22;;;27.41;60.76
46379;BME280;32084;42.254;22.744;2023-08-21T07:16:59;95588.16;;;27.54;58.72
46379;BME280;32084;42.254;22.744;2023-08-21T07:19:25;95586.03;;;27.88;57.43
46379;BME280;32084;42.254;22.744;2023-08-21T07:21:51;95589.06;;;28.14;59.53
46379;BME280;32084;42.254;22.744;2023-08-21T07:24:17;95592.25;;;28.33;58.69
46379;BME280;32084;42.254;22.744;2023-08-21T07:26:43;95583.13;;;28.32;56.30
46379;BME280;32084;42.254;22.744;2023-08-21T07:29:09;95584.66;;;28.50;57.21
46379;BME280;32084;42.254;22.744;2023-08-21T07:31:35;95581.59;;;28.79;56.17
46379;BME280;32084;42.254;22.744;2023-08-21T07:34:01;95582.00;;;29.03;54.06
46379;BME280;32084;42.254;22.744;2023-08-21T07:36:27;95592.81;;;29.15;55.46
46379;BME280;32084;42.254;22.744;2023-08-21T07:38:53;95593.16;;;29.29;56.39
46379;BME280;32084;42.254;22.744;2023-08-21T07:41:19;95593.50;;;29.48;56.33
46379;BME280;32084;42.254;22.744;2023-08-21T07:43:45;95584.16;;;29.49;55.21
46379;BME280;32084;42.254;22.744;2023-08-21T07:46:12;95593.53;;;29.53;54.45
46379;BME280;32084;42.254;22.744;2023-08-21T07:48:41;95590.03;;;29.78;52.83
46379;BME280;32084;42.254;22.744;2023-08-21T07:51:08;95592.81;;;29.88;50.66
46379;BME280;32084;42.254;22.744;2023-08-21T07:53:34;95590.59;;;29.95;50.78
46379;BME280;32084;42.254;22.744;2023-08-21T07:56:01;95585.13;;;30.11;52.21
46379;BME280;32084;42.254;22.744;2023-08-21T07:58:27;95582.94;;;30.23;51.02
46379;BME280;32084;42.254;22.744;2023-08-21T08:00:53;95582.69;;;30.35;48.23
46379;BME280;32084;42.254;22.744;2023-08-21T08:03:19;95579.38;;;30.38;46.46
46379;BME280;32084;42.254;22.744;2023-08-21T08:05:45;95579.38;;;30.38;46.15
46379;BME280;32084;42.254;22.744;2023-08-21T08:08:11;95573.84;;;30.38;45.93
46379;BME280;32084;42.254;22.744;2023-08-21T08:10:37;95570.81;;;30.60;46.41
46379;BME280;32084;42.254;22.744;2023-08-21T08:13:04;95574.63;;;30.80;46.83
46379;BME280;32084;42.254;22.744;2023-08-21T08:15:30;95574.63;;;30.85;44.64
46379;BME280;32084;42.254;22.744;2023-08-21T08:17:57;95568.84;;;30.76;44.30
46379;BME280;32084;42.254;22.744;2023-08-21T08:20:23;95569.13;;;30.80;43.72
46379;BME280;32084;42.254;22.744;2023-08-21T08:22:49;95562.78;;;30.79;44.19
46379;BME280;32084;42.254;22.744;2023-08-21T08:25:15;95557.22;;;30.84;47.27
46379;BME280;32084;42.254;22.744;2023-08-21T08:27:41;95565.50;;;30.84;44.08
46379;BME280;32084;42.254;22.744;2023-08-21T08:30:07;95562.75;;;30.89;43.87
46379;BME280;32084;42.254;22.744;2023-08-21T08:32:34;95553.91;;;30.98;45.35
46379;BME280;32084;42.254;22.744;2023-08-21T08:35:00;95567.16;;;31.06;42.58
46379;BME280;32084;42.254;22.744;2023-08-21T08:37:26;95562.66;;;31.20;43.97
46379;BME280;32084;42.254;22.744;2023-08-21T08:39:52;95562.31;;;31.37;43.68
46379;BME280;32084;42.254;22.744;2023-08-21T08:42:18;95557.63;;;31.48;42.79
46379;BME280;32084;42.254;22.744;2023-08-21T08:44:44;95548.72;;;31.56;44.34
46379;BME280;32084;42.254;22.744;2023-08-21T08:47:10;95551.81;;;31.49;42.39
46379;BME280;32084;42.254;22.744;2023-08-21T08:49:37;95549.53;;;31.57;42.50
46379;BME280;32084;42.254;22.744;2023-08-21T08:52:04;95544.78;;;31.67;43.06
46379;BME280;32084;42.254;22.744;2023-08-21T08:54:30;95549.75;;;31.70;40.74
46379;BME280;32084;42.254;22.744;2023-08-21T08:56:56;95549.50;;;31.62;40.95
46379;BME280;32084;42.254;22.744;2023-08-21T08:59:22;95543.44;;;31.65;40.83
46379;BME280;32084;42.254;22.744;2023-08-21T09:01:49;95545.81;;;31.82;43.03
46379;BME280;32084;42.254;22.744;2023-08-21T09:04:15;95538.31;;;31.87;40.27
46379;BME280;32084;42.254;22.744;2023-08-21T09:06:41;95532.69;;;31.98;42.69
46379;BME280;32084;42.254;22.744;2023-08-21T09:09:07;95545.09;;;32.10;40.32
46379;BME280;32084;42.254;22.744;2023-08-21T09:11:34;95535.09;;;32.15;40.49
46379;BME280;32084;42.254;22.744;2023-08-21T09:14:00;95534.72;;;32.26;41.37
46379;BME280;32084;42.254;22.744;2023-08-21T09:16:26;95535.09;;;32.15;38.68
46379;BME280;32084;42.254;22.744;2023-08-21T09:18:53;95531.09;;;32.31;39.94
46379;BME280;32084;42.254;22.744;2023-08-21T09:21:20;95528.34;;;32.26;39.16
46379;BME280;32084;42.254;22.744;2023-08-21T09:23:46;95521.94;;;32.30;42.41
46379;BME280;32084;42.254;22.744;2023-08-21T09:26:22;95521.66;;;32.32;40.99
46379;BME280;32084;42.254;22.744;2023-08-21T09:28:49;95524.47;;;32.27;39.04
46379;BME280;32084;42.254;22.744;2023-08-21T09:31:15;95518.84;;;32.37;39.41
46379;BME280;32084;42.254;22.744;2023-08-21T09:33:42;95521.56;;;32.42;38.91
46379;BME280;32084;42.254;22.744;2023-08-21T09:36:23;95517.16;;;32.41;37.59
46379;BME280;32084;42.254;22.744;2023-08-21T09:38:50;95510.84;;;32.36;38.92
46379;BME280;32084;42.254;22.744;2023-08-21T09:41:18;95519.16;;;32.30;38.47
46379;BME280;32084;42.254;22.744;2023-08-21T09:43:44;95511.97;;;32.35;39.17
46379;BME280;32084;42.254;22.744;2023-08-21T09:46:13;95504.78;;;32.34;40.28
46379;BME280;32084;42.254;22.744;2023-08-21T09:48:40;95505.88;;;32.33;39.60
46379;BME280;32084;42.254;22.744;2023-08-21T09:51:07;95508.56;;;32.43;38.21
46379;BME280;32084;42.254;22.744;2023-08-21T09:53:33;95499.66;;;32.46;38.18
46379;BME280;32084;42.254;22.744;2023-08-21T09:55:59;95493.69;;;32.63;39.68
46379;BME280;32084;42.254;22.744;2023-08-21T09:58:29;95505.88;;;32.67;36.52
46379;BME280;32084;42.254;22.744;2023-08-21T10:00:58;95496.84;;;32.51;37.54
46379;BME280;32084;42.254;22.744;2023-08-21T10:03:24;95500.16;;;32.53;36.68
46379;BME280;32084;42.254;22.744;2023-08-21T10:05:51;95497.59;;;32.62;37.63
46379;BME280;32084;42.254;22.744;2023-08-21T10:08:21;95494.56;;;32.63;36.14
46379;BME280;32084;42.254;22.744;2023-08-21T10:10:49;95488.88;;;32.74;37.57
46379;BME280;32084;42.254;22.744;2023-08-21T10:13:15;95481.59;;;32.83;38.77
46379;BME280;32084;42.254;22.744;2023-08-21T10:15:41;95488.25;;;32.82;35.52
46379;BME280;32084;42.254;22.744;2023-08-21T10:18:18;95483.41;;;32.93;38.42
46379;BME280;32084;42.254;22.744;2023-08-21T10:20:44;95482.88;;;32.91;36.55
46379;BME280;32084;42.254;22.744;2023-08-21T10:23:23;95481.78;;;32.92;37.84
46379;BME280;32084;42.254;22.744;2023-08-21T10:25:50;95473.22;;;32.88;38.11
46379;BME280;32084;42.254;22.744;2023-08-21T10:28:19;95474.06;;;32.88;37.88
46379;BME280;32084;42.254;22.744;2023-08-21T10:30:45;95484.59;;;32.86;36.74
46379;BME280;32084;42.254;22.744;2023-08-21T10:33:11;95469.03;;;32.91;38.13
46379;BME280;32084;42.254;22.744;2023-08-21T10:35:37;95460.53;;;33.06;37.46
46379;BME280;32084;42.254;22.744;2023-08-21T10:38:10;95459.97;;;33.09;37.88
46379;BME280;32084;42.254;22.744;2023-08-21T10:40:37;95452.47;;;33.10;38.21
46379;BME280;32084;42.254;22.744;2023-08-21T10:43:04;95455.50;;;33.13;36.16
46379;BME280;32084;42.254;22.744;2023-08-21T10:45:30;95454.72;;;33.07;36.64
46379;BME280;32084;42.254;22.744;2023-08-21T10:47:59;95454.75;;;33.02;37.11
46379;BME280;32084;42.254;22.744;2023-08-21T10:50:25;95447.81;;;33.05;36.62
46379;BME280;32084;42.254;22.744;2023-08-21T10:52:52;95447.41;;;33.17;36.71
46379;BME280;32084;42.254;22.744;2023-08-21T10:55:19;95446.75;;;33.25;36.66
46379;BME280;32084;42.254;22.744;2023-08-21T10:57:48;95435.53;;;33.16;36.88
46379;BME280;32084;42.254;22.744;2023-08-21T11:00:15;95436.03;;;33.18;36.89
46379;BME280;32084;42.254;22.744;2023-08-21T11:02:43;95445.63;;;33.26;36.42
46379;BME280;32084;42.254;22.744;2023-08-21T11:05:09;95441.44;;;33.29;37.32
46379;BME280;32084;42.254;22.744;2023-08-21T11:07:37;95435.13;;;33.42;37.63
46379;BME280;32084;42.254;22.744;2023-08-21T11:10:04;95432.81;;;33.49;37.12
46379;BME280;32084;42.254;22.744;2023-08-21T11:12:31;95433.63;;;33.50;37.00
46379;BME280;32084;42.254;22.744;2023-08-21T11:14:56;95429.44;;;33.52;37.65
46379;BME280;32084;42.254;22.744;2023-08-21T11:17:22;95434.84;;;33.43;36.33
46379;BME280;32084;42.254;22.744;2023-08-21T11:19:51;95432.75;;;33.35;36.13
46379;BME280;32084;42.254;22.744;2023-08-21T11:22:17;95437.09;;;33.22;36.20
46379;BME280;32084;42.254;22.744;2023-08-21T11:24:44;95429.59;;;33.23;35.38
46379;BME280;32084;42.254;22.744;2023-08-21T11:27:12;95429.88;;;33.21;35.59
46379;BME280;32084;42.254;22.744;2023-08-21T11:29:42;95427.63;;;33.23;36.50
46379;BME280;32084;42.254;22.744;2023-08-21T11:32:21;95421.06;;;33.38;35.76
46379;BME280;32084;42.254;22.744;2023-08-21T11:34:51;95424.22;;;33.51;36.67
46379;BME280;32084;42.254;22.744;2023-08-21T11:37:18;95421.03;;;33.57;34.97
46379;BME280;32084;42.254;22.744;2023-08-21T11:39:47;95416.31;;;33.58;35.34
46379;BME280;32084;42.254;22.744;2023-08-21T11:42:13;95406.38;;;33.57;36.00
46379;BME280;32084;42.254;22.744;2023-08-21T11:44:40;95413.66;;;33.53;35.58
46379;BME280;32084;42.254;22.744;2023-08-21T11:47:06;95402.94;;;33.27;35.65
46379;BME280;32084;42.254;22.744;2023-08-21T11:49:35;95407.94;;;33.25;35.00
46379;BME280;32084;42.254;22.744;2023-08-21T11:52:02;95400.91;;;33.33;35.62
46379;BME280;32084;42.254;22.744;2023-08-21T11:54:32;95399.69;;;33.39;34.38
46379;BME280;32084;42.254;22.744;2023-08-21T11:56:57;95400.91;;;33.33;34.56
46379;BME280;32084;42.254;22.744;2023-08-21T11:59:23;95398.22;;;33.28;33.67
46379;BME280;32084;42.254;22.744;2023-08-21T12:01:50;95393.56;;;33.23;34.61
46379;BME280;32084;42.254;22.744;2023-08-21T12:04:16;95380.94;;;33.17;35.06
46379;BME280;32084;42.254;22.744;2023-08-21T12:06:44;95384.06;;;33.29;35.31
46379;BME280;32084;42.254;22.744;2023-08-21T12:09:10;95372.47;;;33.27;35.80
46379;BME280;32084;42.254;22.744;2023-08-21T12:11:36;95382.25;;;33.38;35.66
46379;BME280;32084;42.254;22.744;2023-08-21T12:14:04;95381.59;;;33.28;35.00
46379;BME280;32084;42.254;22.744;2023-08-21T12:16:30;95381.16;;;33.39;33.80
46379;BME280;32084;42.254;22.744;2023-08-21T12:18:56;95387.34;;;33.50;33.01
46379;BME280;32084;42.254;22.744;2023-08-21T12:21:23;95385.53;;;33.59;32.09
46379;BME280;32084;42.254;22.744;2023-08-21T12:23:49;95381.06;;;33.63;32.07
46379;BME280;32084;42.254;22.744;2023-08-21T12:26:15;95385.31;;;33.56;31.33
46379;BME280;32084;42.254;22.744;2023-08-21T12:28:46;95385.31;;;33.56;31.91
46379;BME280;32084;42.254;22.744;2023-08-21T12:31:13;95380.47;;;33.48;32.86
46379;BME280;32084;42.254;22.744;2023-08-21T12:33:38;95397.84;;;33.34;31.79
46379;BME280;32084;42.254;22.744;2023-08-21T12:36:04;95392.31;;;33.34;31.51
46379;BME280;32084;42.254;22.744;2023-08-21T12:38:30;95385.94;;;33.34;31.89
46379;BME280;32084;42.254;22.744;2023-08-21T12:40:57;95389.25;;;33.36;31.35
46379;BME280;32084;42.254;22.744;2023-08-21T12:43:23;95388.72;;;33.34;32.10
46379;BME280;32084;42.254;22.744;2023-08-21T12:45:49;95370.72;;;33.31;31.93